createdAt,value
2019-04-04T00:01:22.873Z,0.90
2019-04-04T00:03:51.538Z,0.90
2019-04-04T00:06:16.766Z,0.90
2019-04-04T00:08:43.690Z,1.00
2019-04-04T00:11:10.596Z,0.93
2019-04-04T00:13:37.536Z,1.13
2019-04-04T00:16:04.474Z,0.87
2019-04-04T00:18:31.400Z,1.00
2019-04-04T00:20:58.392Z,0.93
2019-04-04T00:23:25.308Z,1.10
2019-04-04T00:25:52.244Z,1.17
2019-04-04T00:28:19.173Z,1.33
2019-04-04T00:30:48.242Z,1.20
2019-04-04T00:33:13.039Z,1.23
2019-04-04T00:35:39.981Z,1.10
2019-04-04T00:38:07.598Z,1.23
2019-04-04T00:40:33.808Z,1.17
2019-04-04T00:43:00.753Z,1.10
2019-04-04T00:45:28.990Z,1.20
2019-04-04T00:47:54.587Z,1.40
2019-04-04T00:50:21.523Z,1.30
2019-04-04T00:52:48.461Z,1.20
2019-04-04T00:55:15.898Z,1.30
2019-04-04T00:57:42.327Z,1.23
2019-04-04T01:00:09.730Z,1.40
2019-04-04T01:02:36.653Z,1.53
2019-04-04T01:05:04.062Z,1.00
2019-04-04T01:07:31.044Z,1.60
2019-04-04T01:09:57.963Z,1.53
2019-04-04T01:12:24.921Z,1.30
2019-04-04T01:14:51.837Z,1.60
2019-04-04T01:17:18.756Z,1.50
2019-04-04T01:19:48.831Z,1.70
2019-04-04T01:22:12.620Z,1.60
2019-04-04T01:24:39.533Z,1.60
2019-04-04T01:27:06.949Z,1.60
2019-04-04T01:29:33.365Z,1.50
2019-04-04T01:32:00.285Z,1.70
2019-04-04T01:34:27.241Z,1.80
2019-04-04T01:36:56.086Z,1.80
2019-04-04T01:39:21.071Z,1.80
2019-04-04T01:41:48.018Z,1.70
2019-04-04T01:44:14.920Z,1.80
2019-04-04T01:46:41.866Z,1.80
2019-04-04T01:49:08.791Z,2.13
2019-04-04T01:51:35.711Z,2.10
2019-04-04T01:54:02.624Z,1.93
2019-04-04T01:56:29.556Z,2.20
2019-04-04T01:58:56.472Z,2.20
2019-04-04T02:01:24.757Z,2.30
2019-04-04T02:03:51.845Z,2.30
2019-04-04T02:06:18.586Z,2.10
2019-04-04T02:08:45.487Z,1.60
2019-04-04T02:11:12.412Z,1.90
2019-04-04T02:13:40.950Z,1.80
2019-04-04T02:16:06.237Z,2.13
2019-04-04T02:18:33.168Z,1.90
2019-04-04T02:21:00.085Z,1.90
2019-04-04T02:23:27.029Z,1.87
2019-04-04T02:25:53.999Z,1.90
2019-04-04T02:28:20.922Z,1.80
2019-04-04T02:30:48.515Z,1.80
2019-04-04T02:33:14.858Z,1.97
2019-04-04T02:35:43.698Z,2.03
2019-04-04T02:38:08.723Z,1.90
2019-04-04T02:40:35.662Z,1.70
2019-04-04T02:43:02.573Z,1.83
2019-04-04T02:45:29.484Z,1.77
2019-04-04T02:47:56.429Z,1.97
2019-04-04T02:50:23.349Z,1.90
2019-04-04T02:52:50.277Z,1.90
2019-04-04T02:55:17.193Z,2.37
2019-04-04T02:57:44.108Z,1.83
2019-04-04T03:00:11.046Z,1.93
2019-04-04T03:02:38.152Z,2.07
2019-04-04T03:05:05.081Z,2.13
2019-04-04T03:07:32.052Z,2.30
2019-04-04T03:09:58.992Z,2.00
2019-04-04T03:12:26.857Z,2.40
2019-04-04T03:14:52.816Z,2.20
2019-04-04T03:17:19.853Z,2.10
2019-04-04T03:19:46.745Z,2.40
2019-04-04T03:22:13.668Z,2.27
2019-04-04T03:24:44.830Z,2.23
2019-04-04T03:27:07.537Z,2.47
2019-04-04T03:29:37.290Z,2.50
2019-04-04T03:32:01.401Z,2.40
2019-04-04T03:34:28.340Z,2.63
2019-04-04T03:36:55.251Z,2.50
2019-04-04T03:39:22.198Z,2.90
2019-04-04T03:41:49.117Z,2.60
2019-04-04T03:44:19.628Z,3.07
2019-04-04T03:46:42.982Z,3.20
2019-04-04T03:49:09.922Z,3.37
2019-04-04T03:51:38.066Z,3.70
2019-04-04T03:54:06.179Z,3.40
2019-04-04T03:56:38.855Z,3.67
2019-04-04T03:59:00.754Z,3.77
2019-04-04T04:01:27.031Z,3.67
2019-04-04T04:03:55.691Z,4.10
2019-04-04T04:06:22.124Z,4.00
2019-04-04T04:08:51.143Z,4.00
2019-04-04T04:11:16.032Z,3.80
2019-04-04T04:13:42.945Z,4.37
2019-04-04T04:16:09.886Z,4.40
2019-04-04T04:18:36.805Z,4.30
2019-04-04T04:21:03.795Z,4.60
2019-04-04T04:23:30.725Z,4.67
2019-04-04T04:25:57.641Z,4.77
2019-04-04T04:28:24.553Z,4.53
2019-04-04T04:30:51.486Z,4.23
2019-04-04T04:33:18.409Z,3.40
2019-04-04T04:35:45.337Z,3.53
2019-04-04T04:38:12.271Z,3.50
2019-04-04T04:40:39.227Z,3.73
2019-04-04T04:43:06.156Z,3.53
2019-04-04T04:45:33.075Z,3.47
2019-04-04T04:47:59.980Z,3.37
2019-04-04T04:50:26.909Z,3.40
2019-04-04T04:52:54.616Z,3.23
2019-04-04T04:55:21.528Z,3.87
2019-04-04T04:57:48.441Z,3.50
2019-04-04T05:00:16.200Z,3.50
2019-04-04T05:02:42.340Z,3.70
2019-04-04T05:05:09.681Z,4.60
2019-04-04T05:07:38.472Z,4.67
2019-04-04T05:10:04.228Z,7.80
2019-04-04T05:12:31.140Z,9.43
2019-04-04T05:14:59.194Z,10.27
2019-04-04T05:17:25.018Z,8.67
2019-04-04T05:19:51.956Z,6.23
2019-04-04T05:22:18.902Z,6.23
2019-04-04T05:24:50.519Z,11.13
2019-04-04T05:27:12.722Z,5.70
2019-04-04T05:29:39.678Z,4.90
2019-04-04T05:32:06.603Z,4.90
2019-04-04T05:34:33.512Z,4.90
2019-04-04T05:37:00.432Z,5.90
2019-04-04T05:39:27.389Z,6.07
2019-04-04T05:41:54.316Z,6.10
2019-04-04T05:44:21.248Z,5.40
2019-04-04T05:46:51.203Z,5.90
2019-04-04T05:49:15.062Z,5.30
2019-04-04T05:51:42.000Z,12.47
2019-04-04T05:54:08.920Z,8.07
2019-04-04T05:56:35.845Z,8.57
2019-04-04T05:59:02.768Z,8.97
2019-04-04T06:01:29.676Z,8.83
2019-04-04T06:03:56.709Z,8.87
2019-04-04T06:06:24.288Z,9.13
2019-04-04T06:08:51.215Z,9.93
2019-04-04T06:11:20.906Z,9.33
2019-04-04T06:13:45.079Z,9.60
2019-04-04T06:16:12.003Z,10.00
2019-04-04T06:18:38.941Z,10.60
2019-04-04T06:21:05.881Z,10.70
2019-04-04T06:23:32.780Z,10.63
2019-04-04T06:25:59.728Z,11.33
2019-04-04T06:28:26.670Z,11.77
2019-04-04T06:30:54.304Z,12.57
2019-04-04T06:33:20.494Z,12.37
2019-04-04T06:35:48.032Z,12.17
2019-04-04T06:38:14.401Z,12.80
2019-04-04T06:40:41.366Z,12.63
2019-04-04T06:43:11.647Z,13.13
2019-04-04T06:45:35.172Z,13.30
2019-04-04T06:48:02.120Z,12.80
2019-04-04T06:50:29.063Z,11.73
2019-04-04T06:52:56.678Z,12.17
2019-04-04T06:55:22.912Z,12.63
2019-04-04T06:57:51.387Z,12.67
2019-04-04T07:00:16.828Z,13.17
2019-04-04T07:02:43.745Z,12.53
2019-04-04T07:05:10.992Z,12.43
2019-04-04T07:07:38.020Z,12.73
2019-04-04T07:10:04.960Z,11.53
2019-04-04T07:12:31.900Z,12.97
2019-04-04T07:14:58.821Z,12.23
2019-04-04T07:17:25.725Z,12.60
2019-04-04T07:19:52.665Z,14.47
2019-04-04T07:22:20.607Z,12.97
2019-04-04T07:24:46.492Z,14.17
2019-04-04T07:27:14.215Z,14.53
2019-04-04T07:29:40.354Z,14.57
2019-04-04T07:32:09.501Z,14.97
2019-04-04T07:34:34.212Z,15.00
2019-04-04T07:37:01.141Z,14.37
2019-04-04T07:39:29.942Z,14.17
2019-04-04T07:41:55.107Z,13.40
2019-04-04T07:44:23.300Z,13.33
2019-04-04T07:46:48.883Z,13.03
2019-04-04T07:49:15.802Z,12.73
2019-04-04T07:51:42.788Z,13.10
2019-04-04T07:54:09.713Z,12.60
2019-04-04T07:56:36.643Z,13.17
2019-04-04T07:59:03.568Z,12.43
2019-04-04T08:01:30.483Z,12.07
2019-04-04T08:03:57.427Z,12.77
2019-04-04T08:06:24.334Z,11.63
2019-04-04T08:08:52.540Z,12.23
2019-04-04T08:11:19.452Z,11.50
2019-04-04T08:13:50.577Z,11.70
2019-04-04T08:16:17.488Z,12.67
2019-04-04T08:18:44.407Z,10.70
2019-04-04T08:21:11.337Z,10.87
2019-04-04T08:23:38.246Z,10.90
2019-04-04T08:26:05.201Z,11.57
2019-04-04T08:28:32.121Z,12.33
2019-04-04T08:30:59.036Z,12.17
2019-04-04T08:33:25.963Z,12.60
2019-04-04T08:36:05.123Z,13.20
2019-04-04T08:38:19.878Z,12.70
2019-04-04T08:40:46.810Z,11.40
2019-04-04T08:43:13.720Z,12.60
2019-04-04T08:45:40.692Z,12.40
2019-04-04T08:48:07.623Z,11.80
2019-04-04T08:50:34.551Z,12.97
2019-04-04T08:53:01.484Z,12.73
2019-04-04T08:55:28.459Z,11.47
2019-04-04T08:57:55.376Z,11.47
2019-04-04T09:00:22.304Z,11.63
2019-04-04T09:02:49.250Z,12.10
2019-04-04T09:05:16.161Z,11.20
2019-04-04T09:07:43.116Z,12.80
2019-04-04T09:10:10.333Z,12.30
2019-04-04T09:12:37.271Z,11.13
2019-04-04T09:15:04.836Z,11.17
2019-04-04T09:17:31.783Z,10.67
2019-04-04T09:19:58.729Z,11.23
2019-04-04T09:22:25.689Z,11.20
2019-04-04T09:24:52.625Z,12.10
2019-04-04T09:27:19.637Z,12.63
2019-04-04T09:29:46.585Z,11.77
2019-04-04T09:32:13.512Z,11.90
2019-04-04T09:34:40.446Z,11.50
2019-04-04T09:37:08.865Z,11.97
2019-04-04T09:39:34.372Z,12.23
2019-04-04T09:42:01.293Z,11.53
2019-04-04T09:44:28.231Z,11.70
2019-04-04T09:47:04.814Z,10.83
2019-04-04T09:49:22.069Z,11.63
2019-04-04T09:51:48.992Z,11.60
2019-04-04T09:54:15.926Z,10.40
2019-04-04T09:56:42.831Z,11.10
2019-04-04T09:59:09.745Z,12.00
2019-04-04T10:01:36.680Z,9.53
2019-04-04T10:04:03.678Z,11.23
2019-04-04T10:06:30.591Z,11.47
2019-04-04T10:08:57.548Z,12.00
2019-04-04T10:11:25.784Z,13.93
2019-04-04T10:13:52.700Z,11.83
2019-04-04T10:16:19.639Z,12.33
2019-04-04T10:18:46.546Z,10.97
2019-04-04T10:21:13.472Z,12.20
2019-04-04T10:23:40.420Z,10.63
2019-04-04T10:26:07.335Z,11.70
2019-04-04T10:28:34.240Z,12.23
2019-04-04T10:31:01.183Z,10.23
2019-04-04T10:33:28.104Z,9.53
2019-04-04T10:35:55.030Z,11.77
2019-04-04T10:38:21.977Z,11.47
2019-04-04T10:40:48.914Z,12.07
2019-04-04T10:43:15.817Z,11.50
2019-04-04T10:45:42.740Z,12.00
2019-04-04T10:48:09.704Z,12.43
2019-04-04T10:50:36.637Z,12.23
2019-04-04T10:53:03.577Z,11.47
2019-04-04T10:55:30.534Z,11.93
2019-04-04T10:57:57.445Z,12.50
2019-04-04T11:00:24.400Z,11.70
2019-04-04T11:02:51.347Z,11.77
2019-04-04T11:05:18.260Z,11.57
2019-04-04T11:07:45.209Z,12.20
2019-04-04T11:10:12.128Z,11.63
2019-04-04T11:12:39.296Z,9.97
2019-04-04T11:15:06.242Z,10.77
2019-04-04T11:17:33.160Z,9.40
2019-04-04T11:20:00.102Z,9.43
2019-04-04T11:22:27.028Z,8.00
2019-04-04T11:24:53.985Z,6.60
2019-04-04T11:27:20.893Z,5.30
2019-04-04T11:29:47.831Z,5.20
2019-04-04T11:32:14.752Z,5.40
2019-04-04T11:34:52.551Z,5.20
2019-04-04T11:37:08.600Z,5.10
2019-04-04T11:39:35.526Z,4.50
2019-04-04T11:42:02.449Z,4.93
2019-04-04T11:44:30.779Z,5.13
2019-04-04T11:46:56.444Z,5.67
2019-04-04T11:49:23.373Z,5.40
2019-04-04T11:51:50.316Z,5.40
2019-04-04T11:54:17.254Z,5.50
2019-04-04T11:56:44.676Z,5.63
2019-04-04T11:59:11.625Z,5.17
2019-04-04T12:01:39.689Z,5.17
2019-04-04T12:04:06.619Z,5.27
2019-04-04T12:06:33.553Z,5.27
2019-04-04T12:09:00.468Z,5.60
2019-04-04T12:11:27.385Z,5.07
2019-04-04T12:13:54.648Z,5.20
2019-04-04T12:16:22.261Z,4.97
2019-04-04T12:18:49.245Z,5.40
2019-04-04T12:21:16.217Z,5.30
2019-04-04T12:23:43.154Z,5.60
2019-04-04T12:26:10.467Z,4.63
2019-04-04T12:28:37.456Z,5.47
2019-04-04T12:31:04.450Z,4.80
2019-04-04T12:33:31.470Z,4.57
2019-04-04T12:35:58.445Z,4.57
2019-04-04T12:38:25.420Z,4.10
2019-04-04T12:40:52.371Z,4.60
2019-04-04T12:43:19.298Z,4.50
2019-04-04T12:45:46.242Z,3.77
2019-04-04T12:48:13.143Z,4.50
2019-04-04T12:50:40.083Z,4.90
2019-04-04T12:53:07.008Z,3.77
2019-04-04T12:55:33.979Z,3.67
2019-04-04T12:58:00.928Z,3.50
2019-04-04T13:00:27.873Z,3.07
2019-04-04T13:02:54.829Z,3.33
2019-04-04T13:05:21.787Z,3.70
2019-04-04T13:07:48.739Z,3.23
2019-04-04T13:10:15.681Z,2.93
2019-04-04T13:12:42.614Z,3.20
2019-04-04T13:15:09.900Z,3.40
2019-04-04T13:17:36.824Z,2.90
2019-04-04T13:20:04.293Z,2.80
2019-04-04T13:22:31.214Z,3.00
2019-04-04T13:24:58.144Z,2.90
2019-04-04T13:27:25.116Z,2.80
2019-04-04T13:29:52.087Z,3.10
2019-04-04T13:32:18.997Z,3.30
2019-04-04T13:34:58.372Z,2.87
2019-04-04T13:37:12.856Z,2.70
2019-04-04T13:39:39.792Z,2.90
2019-04-04T13:42:06.727Z,3.20
2019-04-04T13:44:33.641Z,2.47
2019-04-04T13:47:02.727Z,2.90
2019-04-04T13:49:27.501Z,2.40
2019-04-04T13:51:54.468Z,2.50
2019-04-04T13:54:21.357Z,2.80
2019-04-04T13:56:48.304Z,3.30
2019-04-04T13:59:15.243Z,3.33
2019-04-04T14:01:43.098Z,3.10
2019-04-04T14:04:09.136Z,3.30
2019-04-04T14:06:36.047Z,3.40
2019-04-04T14:09:05.241Z,2.77
2019-04-04T14:11:32.185Z,2.90
2019-04-04T14:13:59.115Z,2.70
2019-04-04T14:16:26.276Z,2.10
2019-04-04T14:18:53.217Z,2.20
2019-04-04T14:21:20.147Z,2.60
2019-04-04T14:23:47.069Z,2.10
2019-04-04T14:26:15.056Z,1.90
2019-04-04T14:28:41.969Z,2.07
2019-04-04T14:31:08.896Z,2.57
2019-04-04T14:33:35.878Z,2.50
2019-04-04T14:36:02.792Z,2.60
2019-04-04T14:38:29.741Z,2.37
2019-04-04T14:40:56.684Z,2.60
2019-04-04T14:43:23.613Z,2.70
2019-04-04T14:45:50.540Z,2.40
2019-04-04T14:48:17.522Z,2.50
2019-04-04T14:50:44.487Z,2.30
2019-04-04T14:53:11.420Z,2.20
2019-04-04T14:55:38.353Z,2.10
2019-04-04T14:58:05.265Z,2.10
2019-04-04T15:00:32.183Z,2.00
2019-04-04T15:02:59.187Z,2.17
2019-04-04T15:05:26.132Z,1.90
2019-04-04T15:07:53.091Z,1.80
2019-04-04T15:10:20.019Z,1.60
2019-04-04T15:12:46.937Z,1.40
2019-04-04T15:15:13.873Z,1.33
2019-04-04T15:17:42.009Z,1.40
2019-04-04T15:20:08.931Z,1.30
2019-04-04T15:22:35.894Z,1.10
2019-04-04T15:25:02.836Z,1.37
2019-04-04T15:27:29.784Z,1.80
2019-04-04T15:29:56.688Z,1.47
2019-04-04T15:32:23.664Z,1.30
2019-04-04T15:34:50.650Z,1.50
2019-04-04T15:37:17.544Z,1.30
2019-04-04T15:39:44.476Z,1.63
2019-04-04T15:42:11.456Z,1.87
2019-04-04T15:44:38.363Z,1.63
2019-04-04T15:47:05.306Z,1.90
2019-04-04T15:49:32.219Z,1.50
2019-04-04T15:51:59.741Z,1.47
2019-04-04T15:54:26.144Z,1.50
2019-04-04T15:56:53.105Z,1.50
2019-04-04T15:59:20.026Z,1.50
2019-04-04T16:01:46.956Z,1.43
2019-04-04T16:04:13.877Z,1.70
2019-04-04T16:06:40.821Z,1.80
2019-04-04T16:09:07.770Z,2.20
2019-04-04T16:11:34.684Z,1.70
2019-04-04T16:14:01.592Z,1.90
2019-04-04T16:16:28.557Z,1.90
2019-04-04T16:18:56.732Z,1.93
2019-04-04T16:21:25.203Z,2.10
2019-04-04T16:23:52.136Z,2.20
2019-04-04T16:26:19.056Z,2.50
2019-04-04T16:28:45.972Z,2.30
2019-04-04T16:31:12.926Z,2.00
2019-04-04T16:33:39.836Z,2.37
2019-04-04T16:36:06.749Z,2.40
2019-04-04T16:38:33.664Z,2.57
2019-04-04T16:41:00.654Z,2.33
2019-04-04T16:43:27.512Z,2.70
2019-04-04T16:45:54.591Z,2.37
2019-04-04T16:48:21.513Z,2.60
2019-04-04T16:50:48.420Z,2.40
2019-04-04T16:53:15.372Z,3.40
2019-04-04T16:55:42.288Z,3.00
2019-04-04T16:58:09.215Z,2.40
2019-04-04T17:00:36.194Z,1.90
2019-04-04T17:03:03.177Z,1.80
2019-04-04T17:05:30.107Z,1.77
2019-04-04T17:07:57.053Z,1.43
2019-04-04T17:10:23.973Z,1.80
2019-04-04T17:12:50.882Z,1.70
2019-04-04T17:15:17.815Z,1.60
2019-04-04T17:17:44.725Z,1.63
2019-04-04T17:20:11.859Z,1.43
2019-04-04T17:22:38.929Z,1.10
2019-04-04T17:25:05.825Z,1.40
2019-04-04T17:27:32.751Z,1.40
2019-04-04T17:30:00.223Z,1.53
2019-04-04T17:32:26.615Z,1.70
2019-04-04T17:34:53.742Z,1.30
2019-04-04T17:37:20.503Z,2.07
2019-04-04T17:39:47.437Z,1.70
2019-04-04T17:42:27.479Z,1.67
2019-04-04T17:44:41.300Z,1.97
2019-04-04T17:47:08.849Z,1.20
2019-04-04T17:49:35.249Z,1.17
2019-04-04T17:52:02.117Z,1.00
2019-04-04T17:54:29.081Z,1.03
2019-04-04T17:56:55.978Z,1.10
2019-04-04T17:59:22.939Z,1.13
2019-04-04T18:01:49.883Z,0.80
2019-04-04T18:04:16.832Z,1.20
2019-04-04T18:06:43.795Z,1.07
2019-04-04T18:09:10.712Z,1.10
2019-04-04T18:11:37.679Z,0.97
2019-04-04T18:14:04.612Z,1.07
2019-04-04T18:16:31.585Z,1.13
2019-04-04T18:18:58.573Z,1.00
2019-04-04T18:21:27.789Z,0.87
2019-04-04T18:23:54.704Z,1.17
2019-04-04T18:26:21.624Z,1.53
2019-04-04T18:28:48.556Z,1.30
2019-04-04T18:31:15.472Z,1.20
2019-04-04T18:33:42.450Z,1.23
2019-04-04T18:36:09.354Z,1.47
2019-04-04T18:38:36.581Z,1.50
2019-04-04T18:41:03.148Z,1.90
2019-04-04T18:43:30.121Z,1.77
2019-04-04T18:45:57.044Z,1.70
2019-04-04T18:48:23.976Z,1.73
2019-04-04T18:50:50.912Z,2.07
2019-04-04T18:53:17.836Z,1.97
2019-04-04T18:55:44.853Z,1.83
2019-04-04T18:58:11.804Z,1.80
2019-04-04T19:00:38.721Z,1.90
2019-04-04T19:03:05.644Z,1.80
2019-04-04T19:05:32.603Z,1.90
2019-04-04T19:07:59.542Z,1.87
2019-04-04T19:10:26.456Z,4.00
2019-04-04T19:13:04.760Z,4.90
2019-04-04T19:15:20.333Z,2.10
2019-04-04T19:17:47.252Z,1.63
2019-04-04T19:20:14.213Z,1.93
2019-04-04T19:22:41.563Z,1.90
2019-04-04T19:25:08.483Z,1.87
2019-04-04T19:27:35.433Z,1.97
2019-04-04T19:30:02.537Z,1.70
2019-04-04T19:32:29.452Z,1.83
2019-04-04T19:34:56.425Z,1.97
2019-04-04T19:37:23.383Z,2.00
2019-04-04T19:39:50.297Z,1.97
2019-04-04T19:42:17.294Z,2.07
2019-04-04T19:44:53.292Z,2.10
2019-04-04T19:47:11.124Z,2.27
2019-04-04T19:49:38.079Z,2.20
2019-04-04T19:52:04.996Z,2.40
2019-04-04T19:54:32.504Z,2.00
2019-04-04T19:56:59.412Z,2.30
2019-04-04T19:59:26.623Z,2.27
2019-04-04T20:01:53.575Z,2.23
2019-04-04T20:04:20.554Z,2.50
2019-04-04T20:06:47.472Z,2.50
2019-04-04T20:09:14.400Z,2.60
2019-04-04T20:11:41.329Z,4.30
2019-04-04T20:14:08.262Z,3.07
2019-04-04T20:16:35.222Z,2.80
2019-04-04T20:19:02.155Z,2.93
2019-04-04T20:21:29.075Z,2.90
2019-04-04T20:23:56.023Z,2.50
2019-04-04T20:26:22.944Z,3.13
2019-04-04T20:28:49.860Z,2.60
2019-04-04T20:31:16.825Z,2.70
2019-04-04T20:33:43.776Z,2.90
2019-04-04T20:36:10.801Z,3.07
2019-04-04T20:38:37.804Z,3.20
2019-04-04T20:41:04.720Z,2.87
2019-04-04T20:43:42.701Z,3.03
2019-04-04T20:45:58.582Z,3.33
2019-04-04T20:48:25.518Z,3.40
2019-04-04T20:50:52.446Z,3.50
2019-04-04T20:53:21.996Z,3.70
2019-04-04T20:55:48.277Z,3.77
2019-04-04T20:58:15.197Z,3.90
2019-04-04T21:00:42.120Z,3.57
2019-04-04T21:03:09.047Z,4.20
2019-04-04T21:05:35.980Z,4.10
2019-04-04T21:08:02.911Z,3.80
2019-04-04T21:10:29.843Z,4.40
2019-04-04T21:12:56.793Z,3.97
2019-04-04T21:15:23.706Z,4.10
2019-04-04T21:17:50.628Z,3.73
2019-04-04T21:20:17.540Z,3.80
2019-04-04T21:22:44.462Z,4.37
2019-04-04T21:25:11.720Z,4.03
2019-04-04T21:27:38.657Z,4.70
2019-04-04T21:30:05.598Z,3.90
2019-04-04T21:32:32.516Z,3.90
2019-04-04T21:34:59.443Z,5.33
2019-04-04T21:37:26.381Z,4.43
2019-04-04T21:39:53.353Z,4.20
2019-04-04T21:42:20.280Z,4.27
2019-04-04T21:44:47.212Z,4.20
2019-04-04T21:47:14.169Z,4.20
2019-04-04T21:49:41.096Z,4.00
2019-04-04T21:52:08.022Z,4.47
2019-04-04T21:54:34.987Z,4.33
2019-04-04T21:57:01.944Z,4.33
2019-04-04T21:59:28.881Z,4.40
2019-04-04T22:01:55.812Z,4.43
2019-04-04T22:04:22.742Z,4.30
2019-04-04T22:06:49.671Z,13.50
2019-04-04T22:09:17.556Z,7.80
2019-04-04T22:11:44.497Z,4.67
2019-04-04T22:14:21.065Z,4.20
2019-04-04T22:16:38.493Z,4.20
2019-04-04T22:19:05.269Z,4.10
2019-04-04T22:21:32.212Z,4.03
2019-04-04T22:23:59.290Z,4.27
2019-04-04T22:26:27.448Z,4.57
2019-04-04T22:29:00.633Z,4.20
2019-04-04T22:31:27.579Z,4.57
2019-04-04T22:33:56.855Z,4.00
2019-04-04T22:36:23.788Z,4.40
2019-04-04T22:38:50.734Z,4.13
2019-04-04T22:41:17.825Z,4.40
2019-04-04T22:43:44.806Z,3.97
2019-04-04T22:46:11.738Z,4.03
2019-04-04T22:48:38.684Z,4.20
2019-04-04T22:51:05.616Z,4.40
2019-04-04T22:53:32.527Z,4.10
2019-04-04T22:55:59.439Z,4.07
2019-04-04T22:58:28.387Z,4.60
2019-04-04T23:00:53.364Z,4.60
2019-04-04T23:03:20.288Z,4.30
2019-04-04T23:05:47.220Z,4.47
2019-04-04T23:08:14.696Z,4.70
2019-04-04T23:10:41.604Z,4.30
2019-04-04T23:13:08.525Z,4.10
2019-04-04T23:15:35.448Z,4.80
2019-04-04T23:18:02.367Z,4.60
2019-04-04T23:20:29.310Z,4.57
2019-04-04T23:22:56.211Z,4.70
2019-04-04T23:25:23.120Z,4.67
2019-04-04T23:27:51.280Z,4.63
2019-04-04T23:30:18.216Z,4.57
2019-04-04T23:32:45.132Z,5.00
2019-04-04T23:35:12.069Z,5.30
2019-04-04T23:37:38.980Z,5.70
2019-04-04T23:40:05.892Z,5.20
2019-04-04T23:42:32.825Z,5.30
2019-04-04T23:45:01.351Z,4.93
2019-04-04T23:47:26.733Z,4.77
2019-04-04T23:49:53.661Z,4.90
2019-04-04T23:52:20.563Z,5.33
2019-04-04T23:54:47.474Z,5.03
2019-04-04T23:57:14.422Z,5.07
2019-04-04T23:59:41.328Z,4.90
